Time;durP1;ratioP1;P1;durP2;ratioP2;P2;SDS_P1;SDS_P2;PMS_P1;PMS_P2;Temp;Humidity;BMP_temperature;BMP_pressure;BME280_temperature;BME280_humidity;BME280_pressure;Samples;Min_cycle;Max_cycle;Signal;HPM_P1;HPM_P2
2023/08/17 00:02:15;;;;;;;7.82;4.93;;;18.50;56.50;;;;;;5036828;28;20025;-65
2023/08/17 00:04:43;;;;;;;6.28;4.80;;;17.90;57.70;;;;;;5036763;28;20381;-66
2023/08/17 00:07:11;;;;;;;7.32;4.70;;;18.10;56.10;;;;;;5035654;28;20041;-65
2023/08/17 00:09:39;;;;;;;6.30;4.85;;;18.00;56.10;;;;;;5035491;28;20018;-65
2023/08/17 00:12:07;;;;;;;8.32;5.13;;;17.20;58.50;;;;;;5035542;28;20124;-65
2023/08/17 00:14:34;;;;;;;6.63;4.65;;;17.50;57.70;;;;;;5034929;28;20193;-65
2023/08/17 00:17:02;;;;;;;6.72;5.00;;;18.00;56.50;;;;;;5035537;28;20120;-65
2023/08/17 00:19:30;;;;;;;5.95;4.30;;;18.70;55.80;;;;;;5031840;28;20072;-65
2023/08/17 00:21:58;;;;;;;5.85;4.68;;;18.80;54.80;;;;;;5031962;28;20423;-65
2023/08/17 00:24:25;;;;;;;8.23;4.70;;;19.70;53.20;;;;;;5032041;28;20044;-66
2023/08/17 00:26:53;;;;;;;5.57;4.10;;;19.60;53.40;;;;;;5016401;28;20490;-65
2023/08/17 00:29:20;;;;;;;5.20;4.13;;;19.30;52.80;;;;;;5016220;28;20325;-66
2023/08/17 00:31:49;;;;;;;5.70;4.15;;;20.00;52.30;;;;;;5031796;28;20026;-65
2023/08/17 00:34:17;;;;;;;6.60;3.70;;;20.00;50.60;;;;;;5031860;28;20045;-65
2023/08/17 00:36:45;;;;;;;5.35;3.90;;;20.10;50.80;;;;;;5031813;28;20026;-65
2023/08/17 00:39:12;;;;;;;6.82;4.65;;;19.60;50.20;;;;;;5031694;28;20034;-64
2023/08/17 00:41:40;;;;;;;5.32;4.05;;;18.80;54.10;;;;;;5031726;28;20030;-65
2023/08/17 00:44:08;;;;;;;5.60;4.10;;;19.40;52.70;;;;;;5015214;28;20064;-65
2023/08/17 00:46:36;;;;;;;6.93;3.65;;;19.00;51.20;;;;;;5031788;28;20091;-65
2023/08/17 00:49:04;;;;;;;5.53;3.90;;;19.40;52.00;;;;;;5031402;28;20087;-66
2023/08/17 00:51:32;;;;;;;5.05;4.15;;;19.20;51.50;;;;;;5016129;28;20096;-66
2023/08/17 00:54:03;;;;;;;5.00;4.10;;;19.50;51.10;;;;;;5014919;28;20025;-66
2023/08/17 00:56:31;;;;;;;5.00;3.67;;;18.90;52.40;;;;;;5015939;28;20385;-66
2023/08/17 00:58:58;;;;;;;5.57;3.83;;;19.80;51.30;;;;;;5015877;28;20021;-66
2023/08/17 01:01:26;;;;;;;5.88;3.63;;;20.40;50.00;;;;;;5015812;28;20391;-65
2023/08/17 01:03:54;;;;;;;5.38;4.03;;;20.60;48.60;;;;;;5015853;28;20360;-65
2023/08/17 01:06:21;;;;;;;6.82;3.90;;;20.50;50.20;;;;;;5031235;28;20356;-65
2023/08/17 01:08:49;;;;;;;5.20;3.75;;;20.80;48.00;;;;;;5030988;28;20026;-66
2023/08/17 01:11:49;;;;;;;6.05;4.18;;;21.10;47.30;;;;;;5015734;28;20022;-65
2023/08/17 01:14:57;;;;;;;5.95;4.03;;;21.70;47.10;;;;;;4987513;28;20038;-65
2023/08/17 01:17:36;;;;;;;5.47;3.83;;;21.20;47.40;;;;;;4998674;28;20026;-65
2023/08/17 01:20:05;;;;;;;5.45;3.28;;;20.10;47.70;;;;;;5031063;28;20050;-66
2023/08/17 01:22:35;;;;;;;5.25;3.53;;;19.90;50.10;;;;;;5031096;28;20029;-66
2023/08/17 01:25:03;;;;;;;6.05;3.90;;;20.40;49.40;;;;;;5030587;28;20155;-66
2023/08/17 01:27:42;;;;;;;4.82;3.40;;;21.10;48.00;;;;;;5030764;28;20026;-65
2023/08/17 01:30:12;;;;;;;4.15;3.10;;;20.70;46.90;;;;;;5015474;28;20062;-65
2023/08/17 01:33:00;;;;;;;5.90;3.65;;;21.50;45.70;;;;;;5030961;28;20026;-65
2023/08/17 01:35:45;;;;;;;4.35;3.38;;;21.70;46.00;;;;;;5014465;28;20026;-66
2023/08/17 01:38:23;;;;;;;4.80;2.75;;;21.60;46.10;;;;;;5031029;28;20495;-65
2023/08/17 01:40:53;;;;;;;3.40;2.53;;;22.10;45.50;;;;;;5014520;28;20111;-66
2023/08/17 01:43:21;;;;;;;3.53;2.40;;;22.60;42.90;;;;;;5014585;28;20029;-66
2023/08/17 01:45:49;;;;;;;2.05;1.73;;;22.70;40.70;;;;;;5015347;28;20041;-66
2023/08/17 01:48:16;;;;;;;4.35;2.13;;;22.50;38.10;;;;;;5030626;28;20033;-66
2023/08/17 01:50:44;;;;;;;2.25;1.70;;;22.80;38.60;;;;;;5015296;28;20452;-66
2023/08/17 01:53:11;;;;;;;2.70;1.77;;;23.00;38.40;;;;;;5030683;28;20095;-65
2023/08/17 01:55:40;;;;;;;3.40;1.88;;;23.10;36.90;;;;;;5030653;28;20448;-65
2023/08/17 01:58:08;;;;;;;4.43;2.03;;;23.50;37.10;;;;;;5030609;28;20030;-65
2023/08/17 02:00:35;;;;;;;4.05;1.80;;;23.50;37.00;;;;;;5015210;28;20037;-65
2023/08/17 02:03:03;;;;;;;3.60;1.98;;;22.50;36.40;;;;;;5015234;28;20073;-65
2023/08/17 02:05:31;;;;;;;2.75;1.52;;;22.90;35.70;;;;;;5030575;28;20329;-64
2023/08/17 02:07:59;;;;;;;2.50;1.50;;;23.20;35.70;;;;;;5013993;28;20026;-64
2023/08/17 02:10:26;;;;;;;2.08;1.40;;;22.10;36.40;;;;;;5015100;28;20101;-66
2023/08/17 02:12:54;;;;;;;3.53;1.75;;;22.50;36.40;;;;;;5014126;28;20539;-66
2023/08/17 02:15:21;;;;;;;2.03;1.30;;;22.10;35.90;;;;;;5030623;28;20133;-64
2023/08/17 02:17:49;;;;;;;2.70;1.40;;;22.50;33.60;;;;;;5030521;28;20022;-66
2023/08/17 02:20:17;;;;;;;3.30;1.80;;;23.10;34.80;;;;;;5030602;28;20052;-66
2023/08/17 02:22:44;;;;;;;4.05;1.67;;;23.60;35.30;;;;;;5034712;28;20411;-65
2023/08/17 02:25:12;;;;;;;2.90;1.88;;;23.90;34.80;;;;;;5033724;28;20124;-65
2023/08/17 02:27:39;;;;;;;2.58;1.52;;;23.30;34.90;;;;;;5034617;28;20055;-65
2023/08/17 02:30:08;;;;;;;3.38;1.73;;;23.70;33.70;;;;;;5034619;28;20026;-66
2023/08/17 02:32:35;;;;;;;4.05;1.65;;;23.70;34.10;;;;;;5033643;28;20030;-64
2023/08/17 02:35:03;;;;;;;2.67;1.50;;;24.30;34.70;;;;;;5033596;28;20025;-65
2023/08/17 02:37:30;;;;;;;3.08;1.80;;;24.50;32.10;;;;;;5035203;28;20032;-67
2023/08/17 02:39:58;;;;;;;2.03;1.42;;;24.30;33.30;;;;;;5037045;28;20033;-67
2023/08/17 02:42:26;;;;;;;3.85;2.25;;;24.60;33.80;;;;;;5038270;28;20017;-67
2023/08/17 02:44:53;;;;;;;2.28;1.52;;;24.40;33.00;;;;;;5037223;28;20033;-66
2023/08/17 02:47:21;;;;;;;2.70;1.55;;;24.80;30.40;;;;;;5037090;28;20037;-66
2023/08/17 02:49:49;;;;;;;4.75;1.45;;;25.60;29.80;;;;;;5036918;28;20467;-66
2023/08/17 02:52:17;;;;;;;3.00;1.30;;;25.10;31.60;;;;;;5037039;28;20072;-65
2023/08/17 02:54:44;;;;;;;2.53;1.40;;;24.10;29.60;;;;;;5037037;28;20160;-67
2023/08/17 02:57:13;;;;;;;1.90;1.27;;;24.10;30.70;;;;;;5037291;28;20017;-66
2023/08/17 02:59:41;;;;;;;4.18;1.40;;;24.10;31.70;;;;;;5020472;28;20026;-67
2023/08/17 03:02:08;;;;;;;3.25;1.38;;;24.10;30.90;;;;;;5036823;28;20025;-65
2023/08/17 03:04:36;;;;;;;3.17;1.20;;;24.20;30.50;;;;;;5036795;28;20356;-65
2023/08/17 03:07:03;;;;;;;2.10;1.40;;;23.60;29.50;;;;;;5037797;28;20022;-66
2023/08/17 03:09:31;;;;;;;1.83;1.00;;;22.20;30.10;;;;;;5037566;28;20028;-65
2023/08/17 03:11:59;;;;;;;1.92;0.90;;;23.00;30.40;;;;;;5037756;28;20056;-65
2023/08/17 03:14:26;;;;;;;2.65;1.00;;;23.90;31.40;;;;;;5037507;28;20025;-65
2023/08/17 03:16:54;;;;;;;2.95;1.27;;;24.00;30.80;;;;;;5037538;28;20401;-65
2023/08/17 03:19:22;;;;;;;1.88;1.08;;;24.80;30.00;;;;;;5016481;28;20050;-65
2023/08/17 03:21:49;;;;;;;2.85;1.20;;;23.90;30.70;;;;;;5017948;28;20037;-66
2023/08/17 03:24:17;;;;;;;2.20;1.50;;;23.30;30.20;;;;;;5033306;28;20025;-65
2023/08/17 03:26:45;;;;;;;2.00;1.30;;;23.40;31.10;;;;;;5033287;28;20030;-65
2023/08/17 03:29:12;;;;;;;1.90;1.40;;;23.30;31.60;;;;;;5017590;28;20124;-65
2023/08/17 03:31:40;;;;;;;2.22;1.30;;;24.20;31.40;;;;;;5033047;28;20030;-65
2023/08/17 03:34:07;;;;;;;3.50;1.27;;;24.70;29.70;;;;;;5033029;28;20118;-66
2023/08/17 03:36:34;;;;;;;1.48;1.10;;;25.00;30.30;;;;;;5033081;28;20483;-65
2023/08/17 03:39:02;;;;;;;2.10;1.10;;;24.60;29.40;;;;;;5032886;28;20467;-66
2023/08/17 03:41:30;;;;;;;2.40;1.42;;;24.20;29.60;;;;;;5016524;28;20029;-66
2023/08/17 03:43:58;;;;;;;4.00;1.48;;;24.10;30.70;;;;;;5016748;28;20036;-65
2023/08/17 03:46:29;;;;;;;2.35;1.20;;;24.10;31.20;;;;;;5017467;28;20427;-63
2023/08/17 03:48:56;;;;;;;2.95;1.10;;;24.40;29.40;;;;;;5016114;28;20026;-65
2023/08/17 03:51:24;;;;;;;2.67;1.20;;;24.60;30.70;;;;;;5032701;28;20333;-65
2023/08/17 03:53:52;;;;;;;2.25;1.50;;;24.40;30.10;;;;;;5017044;28;20021;-65
2023/08/17 03:56:20;;;;;;;2.17;1.35;;;25.00;29.30;;;;;;5032538;28;20075;-65
2023/08/17 03:58:47;;;;;;;3.85;1.10;;;25.30;30.50;;;;;;5032492;28;20121;-64
2023/08/17 04:01:15;;;;;;;1.67;1.23;;;25.30;28.90;;;;;;5032541;28;20413;-68
2023/08/17 04:03:43;;;;;;;3.00;1.05;;;25.00;29.60;;;;;;5033549;28;20062;-65
2023/08/17 04:06:10;;;;;;;3.42;1.20;;;24.10;31.20;;;;;;5016687;28;20436;-64
2023/08/17 04:08:39;;;;;;;2.05;1.25;;;24.60;28.70;;;;;;5032103;28;20030;-64
2023/08/17 04:11:07;;;;;;;1.95;1.00;;;24.60;29.80;;;;;;5032164;28;20400;-64
2023/08/17 04:13:34;;;;;;;2.25;1.20;;;24.70;31.20;;;;;;5016608;28;20347;-64
2023/08/17 04:16:02;;;;;;;2.50;1.20;;;25.20;29.30;;;;;;5016696;28;20026;-66
2023/08/17 04:18:29;;;;;;;4.47;1.33;;;25.20;29.80;;;;;;5016387;28;20064;-65
2023/08/17 04:20:57;;;;;;;2.17;1.27;;;24.60;29.20;;;;;;5036319;28;20096;-64
2023/08/17 04:23:25;;;;;;;1.65;1.00;;;24.60;28.60;;;;;;5018610;28;20402;-65
2023/08/17 04:25:55;;;;;;;2.28;1.10;;;24.70;28.80;;;;;;5035234;28;20076;-65
2023/08/17 04:28:22;;;;;;;1.73;1.13;;;24.10;29.80;;;;;;5035042;28;20025;-65
2023/08/17 04:30:50;;;;;;;1.75;1.10;;;23.70;29.30;;;;;;5036049;28;20029;-65
2023/08/17 04:33:18;;;;;;;2.67;1.20;;;23.90;30.30;;;;;;5035136;28;20017;-64
2023/08/17 04:35:48;;;;;;;2.75;1.17;;;24.40;29.70;;;;;;5035023;28;20025;-64
2023/08/17 04:38:15;;;;;;;2.28;1.00;;;24.40;29.20;;;;;;5034781;28;20053;-64
2023/08/17 04:40:43;;;;;;;2.75;1.05;;;24.00;29.20;;;;;;5034785;28;20036;-65
2023/08/17 04:43:11;;;;;;;5.85;1.23;;;24.20;30.00;;;;;;5018395;28;20044;-65
2023/08/17 04:45:39;;;;;;;4.93;1.13;;;24.50;29.40;;;;;;5034767;28;20112;-65
2023/08/17 04:48:07;;;;;;;2.30;1.10;;;24.60;29.30;;;;;;5035701;28;20025;-65
2023/08/17 04:50:35;;;;;;;2.35;1.00;;;24.90;27.90;;;;;;5034675;28;20509;-65
2023/08/17 04:53:03;;;;;;;4.10;1.27;;;24.20;29.70;;;;;;5034720;28;20029;-66
2023/08/17 04:55:31;;;;;;;1.40;1.08;;;24.90;29.00;;;;;;5034470;28;20080;-67
2023/08/17 04:57:59;;;;;;;3.63;1.17;;;25.50;27.60;;;;;;5018155;28;20017;-65
2023/08/17 05:00:30;;;;;;;2.78;1.27;;;26.60;27.60;;;;;;5034404;28;20053;-65
2023/08/17 05:02:58;;;;;;;1.40;0.95;;;26.80;27.30;;;;;;5034526;28;20033;-65
2023/08/17 05:05:26;;;;;;;3.88;1.05;;;26.20;27.10;;;;;;5018068;28;20033;-65
2023/08/17 05:07:54;;;;;;;2.38;1.20;;;27.20;27.30;;;;;;5034471;28;20053;-65
2023/08/17 05:10:22;;;;;;;2.35;1.25;;;27.80;25.60;;;;;;5034252;28;20040;-66
2023/08/17 05:12:49;;;;;;;2.45;0.95;;;27.80;25.70;;;;;;5034454;28;20056;-66
2023/08/17 05:15:17;;;;;;;1.58;0.88;;;28.00;26.00;;;;;;5017894;28;20067;-65
2023/08/17 05:17:45;;;;;;;1.50;1.10;;;26.40;27.50;;;;;;5035031;28;20037;-64
2023/08/17 05:20:15;;;;;;;2.95;1.25;;;27.00;26.70;;;;;;5034042;28;20049;-65
2023/08/17 05:22:43;;;;;;;2.13;1.00;;;27.20;27.60;;;;;;5034253;28;20021;-65
2023/08/17 05:25:10;;;;;;;2.30;1.23;;;27.70;27.60;;;;;;5034535;28;20022;-70
2023/08/17 05:27:38;;;;;;;1.27;1.08;;;28.80;25.50;;;;;;5034247;28;20027;-69
2023/08/17 05:30:07;;;;;;;1.35;0.88;;;28.70;26.20;;;;;;5034067;28;20095;-71
2023/08/17 05:32:34;;;;;;;1.10;0.88;;;28.30;24.90;;;;;;5017352;28;20026;-68
2023/08/17 05:35:02;;;;;;;3.05;0.98;;;27.00;26.00;;;;;;5034047;28;20025;-69
2023/08/17 05:37:29;;;;;;;1.13;0.90;;;26.40;27.40;;;;;;5035057;28;20018;-71
2023/08/17 05:39:57;;;;;;;1.63;0.80;;;26.00;28.60;;;;;;5033417;28;20051;-69
2023/08/17 05:42:24;;;;;;;1.83;0.88;;;25.60;27.30;;;;;;5033835;28;20029;-70
2023/08/17 05:44:52;;;;;;;2.15;1.00;;;24.60;28.40;;;;;;5034904;28;20036;-68
2023/08/17 05:47:19;;;;;;;1.60;0.90;;;24.90;28.80;;;;;;5034857;28;20017;-70
2023/08/17 05:49:47;;;;;;;2.03;0.85;;;26.00;29.90;;;;;;5034695;28;20022;-67
2023/08/17 05:52:14;;;;;;;1.35;0.80;;;28.40;25.80;;;;;;5033876;28;20362;-71
2023/08/17 05:54:42;;;;;;;1.30;0.77;;;29.60;24.20;;;;;;5034839;28;20486;-69
2023/08/17 05:57:10;;;;;;;1.77;0.90;;;30.50;23.80;;;;;;5034824;28;20064;-66
2023/08/17 05:59:38;;;;;;;1.92;0.80;;;29.50;24.10;;;;;;5034420;28;20041;-68
2023/08/17 06:02:06;;;;;;;3.65;1.02;;;29.30;25.90;;;;;;5033357;28;20029;-68
2023/08/17 06:04:33;;;;;;;1.30;0.90;;;27.50;26.20;;;;;;5017238;28;20029;-67
2023/08/17 06:07:01;;;;;;;1.13;0.93;;;27.10;26.30;;;;;;5033653;28;20335;-69
2023/08/17 06:09:28;;;;;;;1.40;1.10;;;28.40;26.30;;;;;;5033592;28;20045;-67
2023/08/17 06:11:56;;;;;;;3.20;1.17;;;26.80;27.10;;;;;;5034293;28;20112;-68
2023/08/17 06:14:23;;;;;;;1.63;1.13;;;26.30;28.50;;;;;;5038696;28;20024;-68
2023/08/17 06:16:51;;;;;;;1.40;1.00;;;28.10;26.30;;;;;;5037461;28;20033;-68
2023/08/17 06:19:18;;;;;;;1.63;0.63;;;28.30;25.30;;;;;;5037085;28;20045;-67
2023/08/17 06:21:46;;;;;;;2.55;0.98;;;27.90;25.80;;;;;;5021175;28;20025;-69
2023/08/17 06:24:14;;;;;;;1.60;1.05;;;25.20;27.80;;;;;;5037381;28;20029;-68
2023/08/17 06:26:41;;;;;;;1.17;0.90;;;25.20;29.00;;;;;;5038472;28;20033;-67
2023/08/17 06:29:09;;;;;;;1.20;0.80;;;24.10;29.40;;;;;;5037172;28;20029;-68
2023/08/17 06:31:38;;;;;;;1.25;0.98;;;23.00;31.50;;;;;;5020841;28;20021;-67
2023/08/17 06:34:05;;;;;;;4.13;1.45;;;22.40;34.10;;;;;;5038186;28;20447;-67
2023/08/17 06:36:33;;;;;;;1.77;1.13;;;21.40;39.50;;;;;;5038166;28;20021;-67
2023/08/17 06:39:01;;;;;;;3.85;1.23;;;20.90;41.90;;;;;;5020745;28;20459;-69
2023/08/17 06:41:28;;;;;;;3.90;1.55;;;20.40;43.90;;;;;;5036982;28;20056;-68
2023/08/17 06:43:55;;;;;;;3.08;1.70;;;19.90;45.60;;;;;;5037013;28;20033;-68
2023/08/17 06:46:24;;;;;;;4.80;1.38;;;19.60;46.50;;;;;;5037050;28;20029;-68
2023/08/17 06:48:54;;;;;;;2.60;1.10;;;19.50;47.50;;;;;;5020385;28;20363;-68
2023/08/17 06:51:21;;;;;;;2.38;1.50;;;19.10;48.50;;;;;;5037108;28;20065;-68
2023/08/17 06:53:49;;;;;;;2.17;1.42;;;19.00;48.70;;;;;;5037953;28;20071;-66
2023/08/17 06:56:16;;;;;;;1.88;1.23;;;18.90;48.00;;;;;;5037946;28;20096;-68
2023/08/17 06:58:44;;;;;;;5.28;1.35;;;18.80;48.20;;;;;;5036819;28;20022;-67
2023/08/17 07:01:11;;;;;;;2.45;1.30;;;18.60;48.70;;;;;;5037728;28;20048;-68
2023/08/17 07:03:39;;;;;;;2.63;1.63;;;18.50;48.50;;;;;;5020493;28;20049;-68
2023/08/17 07:06:06;;;;;;;1.77;1.20;;;18.40;48.90;;;;;;5037871;28;20033;-68
2023/08/17 07:08:34;;;;;;;4.05;1.30;;;18.20;48.90;;;;;;5037802;28;20348;-68
2023/08/17 07:11:03;;;;;;;2.58;1.60;;;18.20;49.10;;;;;;5020216;28;20151;-68
2023/08/17 07:13:31;;;;;;;2.83;1.50;;;18.10;49.70;;;;;;5019914;28;20025;-68
2023/08/17 07:15:58;;;;;;;2.97;1.30;;;18.00;49.90;;;;;;5019724;28;20033;-72
2023/08/17 07:18:26;;;;;;;4.28;1.48;;;17.90;50.60;;;;;;5037068;28;20113;-68
2023/08/17 07:20:53;;;;;;;2.97;1.40;;;17.80;50.40;;;;;;5020151;28;20029;-69
2023/08/17 07:23:21;;;;;;;2.40;1.50;;;17.70;50.50;;;;;;5036556;28;20029;-69
2023/08/17 07:25:49;;;;;;;4.97;1.83;;;17.60;51.20;;;;;;5038070;28;20353;-69
2023/08/17 07:28:16;;;;;;;3.33;1.50;;;17.50;51.50;;;;;;5019754;28;20029;-69
2023/08/17 07:30:44;;;;;;;7.30;1.60;;;17.50;51.20;;;;;;5036201;28;20052;-68
2023/08/17 07:33:12;;;;;;;2.45;1.40;;;17.50;51.70;;;;;;5036178;28;20051;-68
2023/08/17 07:35:39;;;;;;;3.72;1.67;;;17.30;51.70;;;;;;5036128;28;20130;-68
2023/08/17 07:38:06;;;;;;;4.00;1.50;;;17.10;52.60;;;;;;5037013;28;20020;-69
2023/08/17 07:40:34;;;;;;;4.25;1.23;;;17.00;52.80;;;;;;5036178;28;20026;-68
2023/08/17 07:43:01;;;;;;;2.10;1.20;;;16.90;52.60;;;;;;5036140;28;20029;-69
2023/08/17 07:45:29;;;;;;;4.53;1.27;;;16.80;52.70;;;;;;5035414;28;20087;-68
2023/08/17 07:47:57;;;;;;;3.45;1.38;;;16.80;53.20;;;;;;5035298;28;20026;-67
2023/08/17 07:50:24;;;;;;;2.28;1.40;;;16.70;54.00;;;;;;5035827;28;20029;-68
2023/08/17 07:52:52;;;;;;;4.68;1.80;;;16.60;54.00;;;;;;5035314;28;20029;-68
2023/08/17 07:55:19;;;;;;;2.55;1.33;;;16.50;54.30;;;;;;5035462;28;20028;-67
2023/08/17 07:57:46;;;;;;;3.15;1.40;;;16.50;54.40;;;;;;5035577;28;20113;-68
2023/08/17 08:00:15;;;;;;;2.92;1.63;;;16.50;54.80;;;;;;5035116;28;20022;-70
2023/08/17 08:02:43;;;;;;;4.03;1.35;;;16.30;55.20;;;;;;5036401;28;20025;-69
2023/08/17 08:05:10;;;;;;;3.72;1.60;;;16.40;54.70;;;;;;5036503;28;20021;-68
2023/08/17 08:07:38;;;;;;;2.78;1.80;;;16.30;55.10;;;;;;5036834;28;20025;-68
2023/08/17 08:10:06;;;;;;;3.67;1.65;;;16.30;55.10;;;;;;5035233;28;20029;-64
2023/08/17 08:12:33;;;;;;;3.88;2.10;;;16.20;55.50;;;;;;5035138;28;20021;-65
2023/08/17 08:15:01;;;;;;;4.07;2.25;;;16.20;55.60;;;;;;5034518;28;20025;-64
2023/08/17 08:17:29;;;;;;;3.33;2.00;;;16.20;55.80;;;;;;5035456;28;20397;-65
2023/08/17 08:19:58;;;;;;;2.83;1.90;;;16.10;56.10;;;;;;5031449;28;20070;-65
2023/08/17 08:22:25;;;;;;;3.17;1.67;;;16.10;55.90;;;;;;5031437;28;20525;-64
2023/08/17 08:24:53;;;;;;;3.15;1.70;;;16.10;56.50;;;;;;5031444;28;20026;-68
2023/08/17 08:27:20;;;;;;;3.65;1.77;;;16.00;57.20;;;;;;5031777;28;20025;-69
2023/08/17 08:29:48;;;;;;;2.65;1.55;;;16.00;57.30;;;;;;5031592;28;20121;-70
2023/08/17 08:32:15;;;;;;;2.42;1.77;;;16.10;57.30;;;;;;5016093;28;20360;-64
2023/08/17 08:34:43;;;;;;;5.88;1.90;;;16.10;57.20;;;;;;5030777;28;20049;-63
2023/08/17 08:37:10;;;;;;;4.90;2.40;;;16.00;57.20;;;;;;5014841;28;20352;-69
2023/08/17 08:39:53;;;;;;;3.80;1.83;;;16.10;57.00;;;;;;5031198;28;20322;-68
2023/08/17 08:42:21;;;;;;;3.75;1.70;;;16.10;57.60;;;;;;5030607;28;20026;-69
2023/08/17 08:44:50;;;;;;;3.67;2.15;;;16.10;57.10;;;;;;5014203;28;20038;-69
2023/08/17 08:47:18;;;;;;;4.97;2.40;;;16.00;57.30;;;;;;5030936;28;20026;-69
2023/08/17 08:50:04;;;;;;;5.10;2.35;;;16.10;56.90;;;;;;5015593;28;20037;-69
2023/08/17 08:52:48;;;;;;;4.90;1.98;;;16.00;57.50;;;;;;4999956;28;20440;-69
2023/08/17 08:55:21;;;;;;;4.30;1.80;;;16.00;58.00;;;;;;5014965;28;20029;-69
2023/08/17 08:57:50;;;;;;;4.22;1.90;;;16.00;58.10;;;;;;5031138;28;20158;-65
2023/08/17 09:00:18;;;;;;;5.18;2.40;;;16.00;58.80;;;;;;5030411;28;20025;-64
2023/08/17 09:02:47;;;;;;;3.90;2.10;;;16.00;59.30;;;;;;5030291;28;20068;-65
2023/08/17 09:05:15;;;;;;;3.38;1.85;;;16.00;59.60;;;;;;5030527;28;20140;-64
2023/08/17 09:07:44;;;;;;;3.47;2.00;;;15.90;59.10;;;;;;5015221;28;20372;-64
2023/08/17 09:10:12;;;;;;;2.75;1.90;;;16.00;59.20;;;;;;5030838;28;20452;-65
2023/08/17 09:12:40;;;;;;;3.85;1.90;;;16.00;59.60;;;;;;5030415;28;20047;-64
2023/08/17 09:15:09;;;;;;;4.97;2.00;;;16.00;58.30;;;;;;5014155;28;20024;-65
2023/08/17 09:17:36;;;;;;;3.42;2.10;;;16.10;58.20;;;;;;5013659;28;20030;-61
2023/08/17 09:20:04;;;;;;;3.38;2.03;;;16.10;58.80;;;;;;5030099;28;20053;-67
2023/08/17 09:22:43;;;;;;;2.97;2.28;;;16.10;58.90;;;;;;5029974;28;20082;-67
2023/08/17 09:25:11;;;;;;;3.45;1.80;;;16.10;58.80;;;;;;5030447;28;20044;-63
2023/08/17 09:27:41;;;;;;;2.22;1.75;;;16.10;58.60;;;;;;5013357;28;20026;-62
2023/08/17 09:30:11;;;;;;;4.45;1.90;;;16.20;58.80;;;;;;5014780;28;20029;-61
2023/08/17 09:32:38;;;;;;;2.33;1.70;;;16.10;58.70;;;;;;5030269;28;20113;-61
2023/08/17 09:35:07;;;;;;;2.33;1.80;;;16.10;58.70;;;;;;5014956;28;20448;-62
2023/08/17 09:37:35;;;;;;;5.75;2.40;;;16.10;58.50;;;;;;5030072;28;20470;-62
2023/08/17 09:40:03;;;;;;;4.57;2.30;;;16.00;60.30;;;;;;5013977;28;20026;-62
2023/08/17 09:42:34;;;;;;;4.25;2.28;;;15.90;60.80;;;;;;5029688;28;20393;-66
2023/08/17 09:45:03;;;;;;;3.15;1.90;;;15.90;61.00;;;;;;5029620;28;20026;-67
2023/08/17 09:47:31;;;;;;;5.20;2.08;;;15.90;60.80;;;;;;5029071;28;20029;-66
2023/08/17 09:49:58;;;;;;;4.13;2.08;;;15.80;60.20;;;;;;5029760;28;20030;-66
2023/08/17 09:52:26;;;;;;;2.50;1.70;;;15.90;60.10;;;;;;5029736;28;20141;-66
2023/08/17 09:54:56;;;;;;;2.70;1.88;;;15.90;59.60;;;;;;5029822;28;20022;-66
2023/08/17 09:57:25;;;;;;;4.93;2.22;;;16.00;59.70;;;;;;5029732;28;20080;-66
2023/08/17 09:59:54;;;;;;;5.20;2.13;;;15.90;60.20;;;;;;5013579;28;20022;-66
2023/08/17 10:02:24;;;;;;;3.08;1.80;;;15.90;59.70;;;;;;5014371;28;20037;-66
2023/08/17 10:04:54;;;;;;;7.28;2.22;;;15.80;59.80;;;;;;5013518;28;20045;-68
2023/08/17 10:07:24;;;;;;;3.10;2.00;;;15.80;60.30;;;;;;5013826;28;20374;-66
2023/08/17 10:10:02;;;;;;;3.63;2.10;;;15.90;60.40;;;;;;5013738;28;20064;-67
2023/08/17 10:12:38;;;;;;;4.90;2.30;;;15.90;60.80;;;;;;4997226;28;20399;-62
2023/08/17 10:15:11;;;;;;;3.63;1.92;;;15.80;60.80;;;;;;5029918;28;20543;-62
2023/08/17 10:17:49;;;;;;;4.10;1.70;;;15.70;60.90;;;;;;4997044;28;20025;-62
2023/08/17 10:20:19;;;;;;;3.95;2.33;;;15.70;60.10;;;;;;5030187;28;20087;-62
2023/08/17 10:23:17;;;;;;;3.75;2.35;;;15.60;62.30;;;;;;5016674;28;20025;-62
2023/08/17 10:25:46;;;;;;;3.22;2.40;;;15.70;61.70;;;;;;5014818;28;20443;-62
2023/08/17 10:28:16;;;;;;;3.00;2.20;;;15.70;61.50;;;;;;5016808;28;20388;-62
2023/08/17 10:30:44;;;;;;;4.47;2.63;;;15.70;61.60;;;;;;5033744;28;20033;-62
2023/08/17 10:33:12;;;;;;;3.40;2.35;;;15.50;61.00;;;;;;5034248;28;20467;-62
2023/08/17 10:35:40;;;;;;;5.90;2.55;;;15.50;61.90;;;;;;5016813;28;20036;-62
2023/08/17 10:38:08;;;;;;;3.10;2.08;;;15.40;61.90;;;;;;5016248;28;20036;-62
2023/08/17 10:40:38;;;;;;;3.83;2.35;;;15.50;61.50;;;;;;5033887;28;20025;-66
2023/08/17 10:43:05;;;;;;;3.53;2.25;;;15.50;62.90;;;;;;5016599;28;20057;-66
2023/08/17 10:45:35;;;;;;;4.22;2.65;;;15.40;62.90;;;;;;5034011;28;20033;-66
2023/08/17 10:48:05;;;;;;;4.40;2.78;;;15.50;65.20;;;;;;5000608;28;20075;-66
2023/08/17 10:50:34;;;;;;;4.72;2.70;;;15.50;67.30;;;;;;5032831;28;20479;-67
2023/08/17 10:53:15;;;;;;;6.85;3.00;;;15.50;69.20;;;;;;5032771;28;20079;-66
2023/08/17 10:55:49;;;;;;;4.95;2.92;;;15.50;69.60;;;;;;5032803;28;20037;-66
2023/08/17 10:58:16;;;;;;;4.95;3.35;;;15.00;71.40;;;;;;5017492;28;20025;-66
2023/08/17 11:00:44;;;;;;;4.60;3.33;;;14.90;72.40;;;;;;5037432;28;20021;-62
2023/08/17 11:03:22;;;;;;;5.60;3.60;;;15.00;72.80;;;;;;5037539;28;20041;-63
2023/08/17 11:05:55;;;;;;;5.47;3.63;;;14.90;73.60;;;;;;5037450;28;20041;-61
2023/08/17 11:08:35;;;;;;;4.95;3.42;;;14.70;74.10;;;;;;5020190;28;20022;-61
2023/08/17 11:11:05;;;;;;;12.68;7.20;;;14.50;73.30;;;;;;5019819;28;20443;-62
2023/08/17 11:13:41;;;;;;;11.00;6.50;;;14.40;77.50;;;;;;5035936;28;20452;-61
2023/08/17 11:16:10;;;;;;;8.55;5.65;;;14.10;77.80;;;;;;5019874;28;20324;-63
2023/08/17 11:18:38;;;;;;;8.25;5.07;;;13.90;80.00;;;;;;5036103;28;20022;-66
2023/08/17 11:21:07;;;;;;;6.85;4.65;;;13.80;80.50;;;;;;5037602;28;20037;-69
2023/08/17 11:23:37;;;;;;;7.65;4.63;;;13.70;81.50;;;;;;5036110;28;20356;-62
2023/08/17 11:26:06;;;;;;;5.38;3.83;;;13.70;81.50;;;;;;5036500;28;20048;-68
2023/08/17 11:28:41;;;;;;;6.60;3.65;;;13.80;81.80;;;;;;5035711;28;20037;-68
2023/08/17 11:31:11;;;;;;;5.22;3.92;;;13.70;82.00;;;;;;5004731;28;20029;-66
2023/08/17 11:33:40;;;;;;;5.20;3.50;;;13.80;82.10;;;;;;5037262;28;20341;-61
2023/08/17 11:36:09;;;;;;;4.97;4.03;;;13.80;81.60;;;;;;5019505;28;20037;-61
2023/08/17 11:38:39;;;;;;;6.75;3.97;;;13.70;82.30;;;;;;5036704;28;20092;-61
2023/08/17 11:41:10;;;;;;;6.53;4.22;;;13.80;82.70;;;;;;5019477;28;20401;-61
2023/08/17 11:43:38;;;;;;;7.80;4.32;;;13.90;82.80;;;;;;5035800;28;20025;-62
2023/08/17 11:46:06;;;;;;;6.15;3.95;;;13.70;82.30;;;;;;5019460;28;20041;-62
2023/08/17 11:48:34;;;;;;;5.88;4.40;;;13.70;83.40;;;;;;5019077;28;20025;-68
2023/08/17 11:51:01;;;;;;;6.25;4.47;;;13.50;85.00;;;;;;5035762;28;20121;-68
2023/08/17 11:53:35;;;;;;;6.10;4.50;;;13.60;85.00;;;;;;5035922;28;20132;-68
2023/08/17 11:56:03;;;;;;;6.47;4.25;;;13.70;84.60;;;;;;5018879;28;20029;-68
2023/08/17 11:58:47;;;;;;;6.60;4.75;;;13.60;84.80;;;;;;5019050;28;20029;-68
2023/08/17 12:01:18;;;;;;;7.60;5.22;;;13.60;84.70;;;;;;5035915;28;20036;-68
2023/08/17 12:03:48;;;;;;;7.20;4.88;;;13.70;85.00;;;;;;5036952;28;20036;-68
2023/08/17 12:06:17;;;;;;;7.60;4.97;;;13.60;85.70;;;;;;5018873;28;20173;-68
2023/08/17 12:08:48;;;;;;;7.75;5.05;;;13.50;86.70;;;;;;5036544;28;20036;-68
2023/08/17 12:11:19;;;;;;;7.97;5.20;;;13.30;87.50;;;;;;5035656;28;20025;-61
2023/08/17 12:13:51;;;;;;;7.97;5.80;;;13.40;87.90;;;;;;5035537;28;20376;-61
2023/08/17 12:16:20;;;;;;;10.93;6.15;;;13.30;88.00;;;;;;5019145;28;20053;-62
2023/08/17 12:18:52;;;;;;;10.63;6.80;;;13.40;87.40;;;;;;5036082;28;20032;-63
2023/08/17 12:21:23;;;;;;;9.20;6.28;;;13.50;87.00;;;;;;5035277;28;20045;-61
2023/08/17 12:23:51;;;;;;;11.27;6.75;;;13.50;86.30;;;;;;5035440;28;20168;-61
2023/08/17 12:26:24;;;;;;;8.88;6.05;;;13.50;86.50;;;;;;5035387;28;20045;-61
2023/08/17 12:28:52;;;;;;;13.10;6.90;;;13.50;86.50;;;;;;5036189;28;20025;-61
2023/08/17 12:31:23;;;;;;;9.68;6.70;;;13.40;86.90;;;;;;5035146;28;20025;-62
2023/08/17 12:33:51;;;;;;;12.68;7.10;;;13.40;87.00;;;;;;5035008;28;20466;-62
2023/08/17 12:36:20;;;;;;;9.48;6.95;;;13.40;87.10;;;;;;5017362;28;20022;-62
2023/08/17 12:38:48;;;;;;;12.63;8.02;;;13.50;87.30;;;;;;5034966;28;20048;-61
2023/08/17 12:41:15;;;;;;;9.82;6.68;;;13.60;87.50;;;;;;5034175;28;20030;-61
2023/08/17 12:43:42;;;;;;;12.30;7.22;;;13.70;87.20;;;;;;5033778;28;20056;-62
2023/08/17 12:46:10;;;;;;;13.32;7.60;;;13.70;87.00;;;;;;5035479;28;20037;-62
2023/08/17 12:48:39;;;;;;;12.30;7.47;;;13.70;87.10;;;;;;5034499;28;20025;-61
2023/08/17 12:51:06;;;;;;;14.43;7.60;;;13.70;87.10;;;;;;5034809;28;20029;-62
2023/08/17 12:53:34;;;;;;;10.05;7.72;;;13.70;87.10;;;;;;5035652;28;20493;-70
2023/08/17 12:56:01;;;;;;;13.02;8.32;;;13.60;87.40;;;;;;5034219;28;20040;-69